Time;durP1;ratioP1;P1;durP2;ratioP2;P2;SDS_P1;SDS_P2;PMS_P1;PMS_P2;Temp;Humidity;BMP_temperature;BMP_pressure;BME280_temperature;BME280_humidity;BME280_pressure;Samples;Min_cycle;Max_cycle;Signal;HPM_P1;HPM_P2
2022/06/13 00:01:41;;;;;;;15.88;9.85;;;;;;;;;;1727025;82;22309;-68
2022/06/13 00:04:08;;;;;;;14.00;9.35;;;;;;;;;;1750492;80;21532;-69
2022/06/13 00:06:35;;;;;;;10.75;8.33;;;;;;;;;;1749953;82;21099;-69
2022/06/13 00:09:03;;;;;;;9.80;7.20;;;;;;;;;;1740009;82;21052;-69
2022/06/13 00:11:31;;;;;;;11.55;7.40;;;;;;;;;;1746483;82;21417;-69
2022/06/13 00:13:57;;;;;;;11.05;7.33;;;;;;;;;;1736536;82;21659;-69
2022/06/13 00:16:25;;;;;;;8.45;7.30;;;;;;;;;;1737322;82;21048;-69
2022/06/13 00:18:53;;;;;;;9.73;6.75;;;;;;;;;;1732781;82;21560;-69
2022/06/13 00:21:22;;;;;;;8.73;6.97;;;;;;;;;;1733439;82;21186;-69
2022/06/13 00:23:50;;;;;;;8.45;6.72;;;;;;;;;;1736433;82;21052;-69
2022/06/13 00:26:18;;;;;;;8.80;7.22;;;;;;;;;;1728225;82;21052;-69
2022/06/13 00:28:44;;;;;;;9.53;6.50;;;;;;;;;;1746773;81;21528;-69
2022/06/13 00:31:10;;;;;;;8.80;6.72;;;;;;;;;;1723707;82;21013;-68
2022/06/13 00:33:36;;;;;;;8.38;5.92;;;;;;;;;;1726566;82;21489;-68
2022/06/13 00:36:02;;;;;;;8.90;6.58;;;;;;;;;;1725504;82;21009;-68
2022/06/13 00:38:29;;;;;;;9.00;6.03;;;;;;;;;;1721901;82;21057;-69
2022/06/13 00:40:56;;;;;;;9.28;7.12;;;;;;;;;;1722239;82;21572;-68
2022/06/13 00:43:21;;;;;;;7.03;5.65;;;;;;;;;;1724495;82;21001;-69
2022/06/13 00:45:47;;;;;;;9.68;6.22;;;;;;;;;;1729973;82;20994;-68
2022/06/13 00:48:14;;;;;;;7.12;5.95;;;;;;;;;;1721798;82;21013;-69
2022/06/13 00:50:46;;;;;;;8.05;6.25;;;;;;;;;;1728155;82;21064;-69
2022/06/13 00:53:14;;;;;;;8.70;6.42;;;;;;;;;;1718895;82;21042;-68
2022/06/13 00:55:54;;;;;;;8.98;6.40;;;;;;;;;;1725984;82;21616;-69
2022/06/13 00:58:20;;;;;;;8.05;5.53;;;;;;;;;;1724869;82;21049;-68
2022/06/13 01:03:35;;;;;;;7.62;6.00;;;;;;;;;;1729217;79;21671;-69
2022/06/13 01:06:01;;;;;;;8.98;6.50;;;;;;;;;;1690921;83;21502;-68
2022/06/13 01:08:29;;;;;;;8.03;5.85;;;;;;;;;;1685396;84;21076;-68
2022/06/13 01:13:44;;;;;;;6.78;5.15;;;;;;;;;;1680603;84;21075;-68
2022/06/13 01:16:12;;;;;;;8.33;6.05;;;;;;;;;;1676110;84;21138;-68
2022/06/13 01:18:53;;;;;;;8.40;6.08;;;;;;;;;;1688839;84;21072;-68
2022/06/13 01:21:23;;;;;;;7.55;5.83;;;;;;;;;;1687632;84;21025;-68
2022/06/13 01:24:03;;;;;;;10.50;7.22;;;;;;;;;;1690442;85;21100;-69
2022/06/13 01:26:37;;;;;;;8.50;6.10;;;;;;;;;;1650597;85;21128;-69
2022/06/13 01:29:08;;;;;;;9.35;6.60;;;;;;;;;;1691707;85;21048;-69
2022/06/13 01:31:39;;;;;;;10.32;7.15;;;;;;;;;;1686126;84;21127;-68
2022/06/13 01:34:10;;;;;;;10.65;7.00;;;;;;;;;;1687092;85;21044;-68
2022/06/13 01:36:39;;;;;;;8.05;6.62;;;;;;;;;;1691442;84;21037;-68
2022/06/13 01:39:13;;;;;;;9.50;6.80;;;;;;;;;;1691395;85;21014;-68
2022/06/13 01:41:56;;;;;;;9.20;6.20;;;;;;;;;;1689909;84;21033;-68
2022/06/13 01:44:30;;;;;;;9.18;6.12;;;;;;;;;;1688887;84;21603;-68
2022/06/13 01:47:04;;;;;;;9.38;6.35;;;;;;;;;;1691240;85;21555;-68
2022/06/13 01:49:32;;;;;;;8.85;6.53;;;;;;;;;;1691107;84;21017;-68
2022/06/13 01:52:00;;;;;;;8.70;6.80;;;;;;;;;;1680668;84;21021;-68
2022/06/13 01:54:31;;;;;;;8.73;6.75;;;;;;;;;;1691170;85;21080;-69
2022/06/13 01:56:59;;;;;;;9.50;6.45;;;;;;;;;;1689957;84;21100;-68
2022/06/13 01:59:33;;;;;;;8.43;6.50;;;;;;;;;;1690173;84;21116;-68
2022/06/13 02:02:04;;;;;;;10.75;6.72;;;;;;;;;;1689845;84;21028;-69
2022/06/13 02:04:38;;;;;;;9.53;6.47;;;;;;;;;;1692991;83;21605;-70
2022/06/13 02:07:05;;;;;;;8.80;6.67;;;;;;;;;;1695581;83;21015;-69
2022/06/13 02:09:35;;;;;;;7.35;6.28;;;;;;;;;;1697971;83;21016;-69
2022/06/13 02:12:01;;;;;;;9.65;7.00;;;;;;;;;;1687682;83;21076;-69
2022/06/13 02:14:30;;;;;;;9.05;7.45;;;;;;;;;;1698854;83;21029;-69
2022/06/13 02:16:58;;;;;;;10.08;6.58;;;;;;;;;;1698170;83;21087;-69
2022/06/13 02:19:31;;;;;;;9.75;6.95;;;;;;;;;;1708358;83;21027;-69
2022/06/13 02:22:02;;;;;;;9.98;6.47;;;;;;;;;;1697995;83;21606;-68
2022/06/13 02:24:32;;;;;;;10.60;6.60;;;;;;;;;;1692421;83;21033;-68
2022/06/13 02:26:58;;;;;;;8.00;6.65;;;;;;;;;;1699268;83;21306;-68
2022/06/13 02:29:26;;;;;;;8.35;6.55;;;;;;;;;;1697819;84;21060;-69
2022/06/13 02:31:53;;;;;;;9.60;6.92;;;;;;;;;;1699567;83;21500;-69
2022/06/13 02:34:24;;;;;;;9.65;7.10;;;;;;;;;;1697354;83;21091;-70
2022/06/13 02:36:55;;;;;;;9.28;6.67;;;;;;;;;;1697250;83;20996;-69
2022/06/13 02:39:29;;;;;;;10.70;7.15;;;;;;;;;;1698457;83;21062;-69
2022/06/13 02:41:56;;;;;;;10.25;7.22;;;;;;;;;;1698367;83;21043;-68
2022/06/13 02:44:24;;;;;;;13.35;7.92;;;;;;;;;;1698655;83;20999;-68
2022/06/13 02:46:52;;;;;;;10.72;8.38;;;;;;;;;;1699287;83;21009;-68
2022/06/13 02:49:32;;;;;;;11.00;7.35;;;;;;;;;;1705536;83;21056;-68
2022/06/13 02:52:09;;;;;;;9.83;7.37;;;;;;;;;;1699455;84;21099;-69
2022/06/13 02:54:37;;;;;;;11.25;7.15;;;;;;;;;;1698286;83;20989;-68
2022/06/13 02:57:23;;;;;;;8.58;6.90;;;;;;;;;;1699686;83;21036;-69
2022/06/13 03:00:10;;;;;;;8.63;6.28;;;;;;;;;;1687310;83;21035;-68
2022/06/13 03:02:38;;;;;;;7.83;6.65;;;;;;;;;;1702044;83;21079;-68
2022/06/13 03:05:06;;;;;;;6.95;5.67;;;;;;;;;;1702721;83;21012;-68
2022/06/13 03:07:37;;;;;;;9.93;6.78;;;;;;;;;;1730376;82;20988;-69
2022/06/13 03:10:05;;;;;;;10.80;6.22;;;;;;;;;;1729497;81;21041;-68
2022/06/13 03:12:34;;;;;;;7.87;6.47;;;;;;;;;;1720013;81;21078;-68
2022/06/13 03:15:01;;;;;;;8.73;6.60;;;;;;;;;;1731812;81;21579;-69
2022/06/13 03:17:30;;;;;;;9.75;7.12;;;;;;;;;;1733946;81;21136;-69
2022/06/13 03:20:16;;;;;;;10.43;7.65;;;;;;;;;;1704497;83;21036;-69
2022/06/13 03:22:46;;;;;;;11.20;6.28;;;;;;;;;;1704560;84;21585;-69
2022/06/13 03:25:15;;;;;;;8.68;6.47;;;;;;;;;;1704406;83;21015;-69
2022/06/13 03:27:43;;;;;;;8.48;6.17;;;;;;;;;;1698591;84;21671;-70
2022/06/13 03:30:11;;;;;;;8.38;6.53;;;;;;;;;;1729090;81;21531;-70
2022/06/13 03:32:42;;;;;;;8.28;6.65;;;;;;;;;;1732383;83;21040;-70
2022/06/13 03:35:10;;;;;;;9.30;6.92;;;;;;;;;;1719085;83;21025;-70
2022/06/13 03:37:44;;;;;;;7.62;5.90;;;;;;;;;;1701449;83;21053;-70
2022/06/13 03:40:15;;;;;;;8.38;6.37;;;;;;;;;;1734416;81;21085;-69
2022/06/13 03:42:43;;;;;;;7.12;5.83;;;;;;;;;;1704525;83;20987;-70
2022/06/13 03:45:16;;;;;;;8.83;7.03;;;;;;;;;;1710255;83;21042;-69
2022/06/13 03:47:42;;;;;;;7.60;6.80;;;;;;;;;;1708872;83;21119;-69
2022/06/13 03:50:10;;;;;;;6.80;6.10;;;;;;;;;;1699692;83;21078;-69
2022/06/13 03:52:38;;;;;;;8.05;6.10;;;;;;;;;;1743258;81;21015;-70
2022/06/13 03:55:06;;;;;;;6.53;5.87;;;;;;;;;;1704569;83;21054;-70
2022/06/13 03:57:34;;;;;;;8.25;6.55;;;;;;;;;;1713954;83;21076;-69
2022/06/13 04:00:02;;;;;;;7.15;6.45;;;;;;;;;;1699050;83;21514;-69
2022/06/13 04:02:31;;;;;;;7.30;5.72;;;;;;;;;;1693373;83;21084;-70
2022/06/13 04:04:58;;;;;;;6.90;5.67;;;;;;;;;;1694508;84;21053;-70
2022/06/13 04:07:25;;;;;;;7.53;5.80;;;;;;;;;;1721434;82;21523;-70
2022/06/13 04:09:53;;;;;;;5.92;5.33;;;;;;;;;;1754312;80;21048;-70
2022/06/13 04:12:39;;;;;;;8.83;5.50;;;;;;;;;;1774348;80;21064;-70
2022/06/13 04:15:09;;;;;;;9.58;6.30;;;;;;;;;;1756130;80;21083;-69
2022/06/13 04:17:48;;;;;;;6.58;5.97;;;;;;;;;;1724370;82;21533;-69
2022/06/13 04:20:25;;;;;;;9.15;6.00;;;;;;;;;;1759088;80;21043;-70
2022/06/13 04:23:08;;;;;;;6.35;5.75;;;;;;;;;;1767111;80;21019;-70
2022/06/13 04:25:42;;;;;;;6.67;5.97;;;;;;;;;;1658186;86;21037;-70
2022/06/13 04:28:12;;;;;;;6.30;5.65;;;;;;;;;;1724661;80;21040;-70
2022/06/13 04:30:39;;;;;;;7.20;6.05;;;;;;;;;;1749374;82;21055;-70
2022/06/13 04:33:16;;;;;;;6.72;5.45;;;;;;;;;;1729418;81;21039;-70
2022/06/13 04:35:42;;;;;;;6.12;5.53;;;;;;;;;;1736589;81;21589;-71
2022/06/13 04:38:09;;;;;;;6.78;5.95;;;;;;;;;;1758084;80;21021;-70
2022/06/13 04:40:37;;;;;;;6.62;5.60;;;;;;;;;;1756498;80;20996;-70
2022/06/13 04:43:05;;;;;;;8.15;5.40;;;;;;;;;;1759066;80;21000;-70
2022/06/13 04:45:32;;;;;;;8.15;5.37;;;;;;;;;;1756845;81;21044;-70
2022/06/13 04:47:58;;;;;;;6.20;5.60;;;;;;;;;;1756582;81;21028;-70
2022/06/13 04:50:33;;;;;;;6.67;5.28;;;;;;;;;;1755709;80;21100;-70
2022/06/13 04:52:59;;;;;;;6.83;5.62;;;;;;;;;;1753195;80;21052;-70
2022/06/13 04:55:27;;;;;;;5.83;5.00;;;;;;;;;;1755497;80;21079;-70
2022/06/13 04:57:54;;;;;;;7.70;5.10;;;;;;;;;;1753837;80;20981;-70
2022/06/13 05:00:20;;;;;;;6.65;5.87;;;;;;;;;;1753456;80;21019;-70
2022/06/13 05:02:47;;;;;;;6.10;5.50;;;;;;;;;;1773378;80;21099;-71
2022/06/13 05:05:21;;;;;;;10.05;5.80;;;;;;;;;;1752541;80;21305;-70
2022/06/13 05:07:49;;;;;;;8.88;5.50;;;;;;;;;;1751263;81;21048;-71
2022/06/13 05:10:16;;;;;;;6.80;5.53;;;;;;;;;;1751701;81;21006;-71
2022/06/13 05:12:43;;;;;;;6.65;5.28;;;;;;;;;;1751918;81;21073;-71
2022/06/13 05:15:16;;;;;;;7.50;5.47;;;;;;;;;;1711396;82;21013;-70
2022/06/13 05:17:55;;;;;;;5.62;5.10;;;;;;;;;;1683297;85;21127;-70
2022/06/13 05:20:25;;;;;;;7.08;5.20;;;;;;;;;;1751539;80;21031;-70
2022/06/13 05:23:10;;;;;;;8.30;5.95;;;;;;;;;;1722894;82;21125;-71
2022/06/13 05:25:38;;;;;;;6.58;5.33;;;;;;;;;;1752858;81;21031;-71
2022/06/13 05:28:04;;;;;;;5.85;5.25;;;;;;;;;;1755972;80;21071;-71
2022/06/13 05:30:31;;;;;;;5.65;4.90;;;;;;;;;;1751562;80;20981;-71
2022/06/13 05:32:57;;;;;;;5.45;4.95;;;;;;;;;;1757765;81;21024;-70
2022/06/13 05:35:24;;;;;;;7.50;5.25;;;;;;;;;;1756380;81;20972;-70
2022/06/13 05:37:51;;;;;;;9.20;5.20;;;;;;;;;;1757564;81;22128;-70
2022/06/13 05:40:19;;;;;;;7.17;5.20;;;;;;;;;;1755832;80;21050;-71
2022/06/13 05:42:46;;;;;;;6.90;4.70;;;;;;;;;;1755748;80;21035;-71
2022/06/13 05:45:13;;;;;;;7.12;5.75;;;;;;;;;;1729753;81;21036;-69
2022/06/13 05:47:41;;;;;;;7.12;5.28;;;;;;;;;;1756785;80;21024;-70
2022/06/13 05:50:09;;;;;;;7.53;5.15;;;;;;;;;;1754155;80;21012;-70
2022/06/13 05:52:35;;;;;;;6.95;5.00;;;;;;;;;;1760913;80;21024;-71
2022/06/13 05:55:02;;;;;;;6.70;5.05;;;;;;;;;;1755407;82;21603;-70
2022/06/13 05:57:29;;;;;;;12.33;5.30;;;;;;;;;;1754450;81;21062;-70
2022/06/13 05:59:55;;;;;;;5.60;5.00;;;;;;;;;;1716254;83;21026;-70
2022/06/13 06:02:21;;;;;;;5.72;5.05;;;;;;;;;;1692608;83;21135;-70
2022/06/13 06:04:48;;;;;;;6.12;4.42;;;;;;;;;;1757680;80;21017;-71
2022/06/13 06:07:14;;;;;;;6.15;4.60;;;;;;;;;;1766741;80;21064;-69
2022/06/13 06:09:41;;;;;;;5.97;4.47;;;;;;;;;;1765009;79;21593;-70
2022/06/13 06:12:08;;;;;;;6.22;5.37;;;;;;;;;;1776937;80;21029;-70
2022/06/13 06:14:35;;;;;;;5.30;4.45;;;;;;;;;;1768233;79;21019;-70
2022/06/13 06:17:00;;;;;;;6.30;4.70;;;;;;;;;;1769278;80;20956;-70
2022/06/13 06:19:29;;;;;;;5.47;4.97;;;;;;;;;;1784401;80;21113;-70
2022/06/13 06:21:56;;;;;;;5.17;4.65;;;;;;;;;;1790676;80;21100;-70
2022/06/13 06:24:21;;;;;;;5.20;4.33;;;;;;;;;;1786908;80;21041;-71
2022/06/13 06:26:47;;;;;;;4.95;4.20;;;;;;;;;;1770368;79;21046;-70
2022/06/13 06:29:13;;;;;;;5.65;3.95;;;;;;;;;;1772543;80;21030;-70
2022/06/13 06:31:39;;;;;;;4.78;4.03;;;;;;;;;;1779121;79;21597;-70
2022/06/13 06:34:05;;;;;;;4.92;3.90;;;;;;;;;;1776822;80;20990;-70
2022/06/13 06:36:32;;;;;;;4.28;3.70;;;;;;;;;;1784454;79;21078;-70
2022/06/13 06:38:58;;;;;;;6.60;3.72;;;;;;;;;;1772195;79;20980;-69
2022/06/13 06:41:25;;;;;;;5.65;4.30;;;;;;;;;;1772340;80;20984;-70
2022/06/13 06:43:51;;;;;;;4.58;4.17;;;;;;;;;;1771502;80;21022;-70
2022/06/13 06:46:17;;;;;;;6.58;3.67;;;;;;;;;;1773151;80;21360;-70
2022/06/13 06:48:43;;;;;;;8.55;4.08;;;;;;;;;;1772274;80;20999;-70
2022/06/13 06:51:12;;;;;;;5.22;4.20;;;;;;;;;;1772201;80;20976;-70
2022/06/13 07:01:52;;;;;;;4.92;4.42;;;;;;;;;;1770527;80;21600;-68
2022/06/13 07:04:18;;;;;;;5.17;4.20;;;;;;;;;;1767895;80;21065;-68
2022/06/13 07:06:44;;;;;;;5.40;4.10;;;;;;;;;;1761145;81;21485;-68
2022/06/13 07:09:10;;;;;;;4.75;4.22;;;;;;;;;;1760026;80;21561;-67
2022/06/13 07:11:55;;;;;;;6.87;4.72;;;;;;;;;;1766354;81;21037;-66
2022/06/13 07:14:23;;;;;;;5.03;4.53;;;;;;;;;;1738151;80;21626;-66
2022/06/13 07:16:50;;;;;;;5.45;4.40;;;;;;;;;;1763044;81;21521;-67
2022/06/13 07:19:17;;;;;;;5.55;4.05;;;;;;;;;;1764615;81;21024;-67
2022/06/13 07:21:43;;;;;;;6.20;4.17;;;;;;;;;;1767731;80;20998;-66
2022/06/13 07:24:10;;;;;;;7.33;4.40;;;;;;;;;;1760468;80;21071;-67
2022/06/13 07:26:36;;;;;;;5.78;4.60;;;;;;;;;;1761110;80;21001;-67
2022/06/13 07:29:03;;;;;;;4.97;4.47;;;;;;;;;;1758881;80;21942;-67
2022/06/13 07:31:31;;;;;;;4.40;4.00;;;;;;;;;;1762786;81;21053;-67
2022/06/13 07:34:33;;;;;;;4.70;4.20;;;;;;;;;;1761028;80;21006;-68
2022/06/13 07:36:35;;;;;;;5.42;4.42;;;;;;;;;;1744118;80;21022;-65
2022/06/13 07:39:01;;;;;;;5.10;4.58;;;;;;;;;;1765819;80;21576;-65
2022/06/13 07:41:28;;;;;;;6.97;4.42;;;;;;;;;;1769708;81;21025;-65
2022/06/13 07:43:54;;;;;;;6.75;4.30;;;;;;;;;;1769312;80;21006;-66
2022/06/13 07:46:22;;;;;;;5.60;4.12;;;;;;;;;;1770076;80;20991;-66
2022/06/13 07:48:49;;;;;;;5.97;4.60;;;;;;;;;;1762886;80;20985;-67
2022/06/13 07:51:16;;;;;;;4.42;4.03;;;;;;;;;;1764679;81;21473;-66
2022/06/13 07:53:44;;;;;;;5.95;4.12;;;;;;;;;;1759027;81;21081;-67
2022/06/13 07:56:10;;;;;;;4.80;3.70;;;;;;;;;;1761511;80;20990;-67
2022/06/13 07:58:36;;;;;;;4.80;4.30;;;;;;;;;;1766809;80;20992;-67
2022/06/13 08:01:03;;;;;;;4.85;3.90;;;;;;;;;;1769596;80;20972;-67
2022/06/13 08:03:30;;;;;;;4.28;3.87;;;;;;;;;;1771408;79;21550;-67
2022/06/13 08:05:57;;;;;;;4.10;3.67;;;;;;;;;;1760398;81;21034;-66
2022/06/13 08:08:23;;;;;;;5.50;3.58;;;;;;;;;;1764688;80;21004;-67
2022/06/13 08:10:50;;;;;;;4.20;3.80;;;;;;;;;;1760645;81;22078;-67
2022/06/13 08:13:16;;;;;;;4.20;3.45;;;;;;;;;;1756988;80;21072;-67
2022/06/13 08:15:44;;;;;;;4.40;3.58;;;;;;;;;;1756669;82;21060;-66
2022/06/13 08:18:13;;;;;;;4.20;3.35;;;;;;;;;;1755552;80;21036;-67
2022/06/13 08:20:39;;;;;;;4.45;3.62;;;;;;;;;;1756017;80;21468;-67
2022/06/13 08:23:08;;;;;;;4.30;3.83;;;;;;;;;;1756870;80;21062;-70
2022/06/13 08:25:35;;;;;;;3.90;3.50;;;;;;;;;;1754681;80;21026;-71
2022/06/13 08:28:01;;;;;;;4.35;3.62;;;;;;;;;;1754092;80;20968;-71
2022/06/13 08:30:29;;;;;;;4.62;3.27;;;;;;;;;;1753720;80;21056;-68
2022/06/13 08:32:56;;;;;;;4.05;3.52;;;;;;;;;;1752021;82;21019;-68
2022/06/13 08:35:23;;;;;;;5.42;3.75;;;;;;;;;;1723999;82;21517;-65
2022/06/13 08:37:49;;;;;;;4.40;3.75;;;;;;;;;;1755455;80;21495;-69
2022/06/13 08:40:15;;;;;;;4.17;3.42;;;;;;;;;;1756290;82;20981;-69
2022/06/13 08:42:46;;;;;;;4.62;3.70;;;;;;;;;;1756784;80;21009;-68
2022/06/13 08:45:28;;;;;;;4.65;3.58;;;;;;;;;;1757102;80;21014;-67
2022/06/13 08:48:07;;;;;;;4.70;3.87;;;;;;;;;;1726382;81;21015;-67
2022/06/13 08:50:48;;;;;;;4.15;3.60;;;;;;;;;;1750889;80;21050;-66
2022/06/13 08:53:24;;;;;;;5.80;3.45;;;;;;;;;;1755535;80;21034;-64
2022/06/13 08:55:52;;;;;;;3.95;3.55;;;;;;;;;;1749841;80;21036;-64
2022/06/13 08:58:26;;;;;;;3.60;3.30;;;;;;;;;;1754666;80;21019;-66
2022/06/13 09:00:54;;;;;;;4.03;3.62;;;;;;;;;;1748601;80;21018;-65
2022/06/13 09:03:22;;;;;;;4.37;3.45;;;;;;;;;;1754180;80;21119;-66
2022/06/13 09:06:08;;;;;;;4.60;3.60;;;;;;;;;;1753872;80;21067;-67
2022/06/13 09:08:39;;;;;;;4.45;3.60;;;;;;;;;;1753722;80;21025;-67
2022/06/13 09:11:09;;;;;;;4.75;3.50;;;;;;;;;;1755784;81;21114;-66
2022/06/13 09:13:38;;;;;;;6.25;3.80;;;;;;;;;;1759748;80;21015;-67
2022/06/13 09:16:22;;;;;;;7.05;3.47;;;;;;;;;;1752215;80;21134;-68
2022/06/13 09:18:48;;;;;;;;;;;;;;;;;;1756342;80;21568;-67
2022/06/13 09:21:21;;;;;;;4.22;3.83;;;;;;;;;;1752063;81;20182;-67
2022/06/13 09:23:52;;;;;;;6.17;3.40;;;;;;;;;;1755473;80;21024;-67
2022/06/13 09:26:19;;;;;;;4.60;4.12;;;;;;;;;;1755003;81;21032;-66
2022/06/13 09:28:47;;;;;;;4.67;4.00;;;;;;;;;;1751822;80;21020;-66
2022/06/13 09:31:15;;;;;;;5.12;3.75;;;;;;;;;;1740827;80;21000;-67
2022/06/13 09:33:43;;;;;;;4.55;3.80;;;;;;;;;;1756305;80;21048;-67
2022/06/13 09:36:21;;;;;;;4.20;3.60;;;;;;;;;;1755068;80;21599;-66
2022/06/13 09:39:06;;;;;;;3.77;3.37;;;;;;;;;;1757158;80;21274;-67
2022/06/13 09:41:37;;;;;;;4.42;3.40;;;;;;;;;;1753667;80;21071;-66
2022/06/13 09:44:07;;;;;;;4.40;3.15;;;;;;;;;;1758169;80;21582;-67
2022/06/13 09:46:51;;;;;;;5.33;3.80;;;;;;;;;;1758929;80;22109;-68
2022/06/13 09:49:21;;;;;;;3.87;3.08;;;;;;;;;;1668144;84;22146;-66
2022/06/13 09:51:52;;;;;;;3.77;3.37;;;;;;;;;;1731879;80;21559;-66
2022/06/13 09:54:23;;;;;;;6.25;3.50;;;;;;;;;;1756689;80;21030;-66
2022/06/13 09:56:58;;;;;;;4.08;3.58;;;;;;;;;;1754089;80;21031;-66
2022/06/13 09:59:30;;;;;;;3.60;3.30;;;;;;;;;;1748665;80;21047;-65
2022/06/13 10:01:58;;;;;;;6.45;3.65;;;;;;;;;;1754768;80;21122;-65
2022/06/13 10:04:29;;;;;;;4.12;3.10;;;;;;;;;;1750693;80;21064;-66
2022/06/13 10:06:57;;;;;;;6.30;3.47;;;;;;;;;;1747129;80;21114;-65
2022/06/13 10:09:31;;;;;;;3.75;3.45;;;;;;;;;;1757068;80;21000;-67
2022/06/13 10:12:01;;;;;;;5.95;3.20;;;;;;;;;;1752767;80;21509;-67
2022/06/13 10:14:36;;;;;;;3.47;3.17;;;;;;;;;;1753164;80;21032;-67
2022/06/13 10:17:04;;;;;;;4.22;3.20;;;;;;;;;;1753578;80;21051;-66
2022/06/13 10:19:45;;;;;;;4.30;3.10;;;;;;;;;;1761381;80;21037;-67
2022/06/13 10:22:13;;;;;;;3.35;2.90;;;;;;;;;;1755110;80;21071;-68
2022/06/13 10:24:41;;;;;;;3.40;3.05;;;;;;;;;;1754245;80;21506;-65
2022/06/13 10:27:18;;;;;;;3.95;2.90;;;;;;;;;;1753618;80;20997;-66
2022/06/13 10:30:04;;;;;;;3.62;2.70;;;;;;;;;;1765194;80;21007;-66
2022/06/13 10:32:41;;;;;;;5.45;3.52;;;;;;;;;;1740794;80;21027;-63
2022/06/13 10:35:15;;;;;;;5.20;4.70;;;;;;;;;;1668170;84;21066;-64
2022/06/13 10:37:43;;;;;;;4.72;4.10;;;;;;;;;;1726303;82;21025;-64
2022/06/13 10:40:10;;;;;;;6.67;5.45;;;;;;;;;;1701014;83;21046;-64
2022/06/13 10:42:38;;;;;;;4.22;3.47;;;;;;;;;;1770470;80;20991;-64
2022/06/13 10:45:07;;;;;;;5.10;3.60;;;;;;;;;;1762008;80;21028;-64
2022/06/13 10:47:38;;;;;;;3.67;3.05;;;;;;;;;;1754125;80;21447;-66
2022/06/13 10:50:08;;;;;;;3.92;3.15;;;;;;;;;;1755361;80;21070;-66
2022/06/13 10:52:37;;;;;;;4.37;3.10;;;;;;;;;;1759457;80;21028;-65
2022/06/13 10:55:08;;;;;;;3.77;3.35;;;;;;;;;;1768962;80;21527;-65
2022/06/13 10:57:36;;;;;;;4.08;3.12;;;;;;;;;;1755642;80;21044;-67
2022/06/13 11:00:21;;;;;;;4.03;2.98;;;;;;;;;;1701884;80;21301;-65
2022/06/13 11:02:47;;;;;;;4.58;3.00;;;;;;;;;;1764922;79;21063;-67
2022/06/13 11:05:17;;;;;;;4.10;3.15;;;;;;;;;;1762869;80;20968;-68
2022/06/13 11:07:45;;;;;;;4.85;3.37;;;;;;;;;;1759075;80;21552;-67
2022/06/13 11:10:29;;;;;;;3.22;2.90;;;;;;;;;;1764555;80;21490;-68
2022/06/13 11:12:55;;;;;;;3.42;2.80;;;;;;;;;;1759869;80;21150;-68
2022/06/13 11:23:53;;;;;;;3.33;2.75;;;;;;;;;;1758544;80;22132;-67
2022/06/13 11:29:03;;;;;;;3.10;2.80;;;;;;;;;;1791856;80;21015;-65
2022/06/13 11:31:31;;;;;;;4.87;2.47;;;;;;;;;;1770191;80;21043;-65
2022/06/13 11:33:58;;;;;;;3.00;2.70;;;;;;;;;;1753765;80;21789;-65
2022/06/13 11:36:26;;;;;;;3.70;3.25;;;;;;;;;;1753882;80;21006;-65
2022/06/13 11:38:54;;;;;;;4.05;2.55;;;;;;;;;;1770673;80;21536;-65
2022/06/13 11:41:21;;;;;;;3.15;2.50;;;;;;;;;;1758315;80;21061;-65
2022/06/13 11:43:50;;;;;;;3.20;2.62;;;;;;;;;;1759617;80;21045;-65
2022/06/13 11:47:01;;;;;;;3.10;2.80;;;;;;;;;;1802276;79;22924;-65
2022/06/13 11:49:39;;;;;;;2.90;2.60;;;;;;;;;;1774165;80;21064;-65
2022/06/13 11:52:08;;;;;;;5.97;2.80;;;;;;;;;;1760483;80;21012;-65
2022/06/13 11:54:36;;;;;;;3.05;2.58;;;;;;;;;;1760826;80;21029;-64
2022/06/13 11:57:16;;;;;;;3.50;3.08;;;;;;;;;;1766709;80;21039;-65
2022/06/13 11:59:53;;;;;;;5.08;2.80;;;;;;;;;;1743726;80;21103;-64
2022/06/13 12:02:21;;;;;;;3.02;2.72;;;;;;;;;;1739781;80;21605;-66
2022/06/13 12:04:47;;;;;;;4.45;2.60;;;;;;;;;;1748259;82;21093;-65
2022/06/13 12:07:21;;;;;;;5.08;2.90;;;;;;;;;;1743929;82;21005;-66
2022/06/13 12:09:56;;;;;;;4.37;2.60;;;;;;;;;;1734196;82;21000;-66
2022/06/13 12:12:25;;;;;;;7.62;2.75;;;;;;;;;;1742072;81;22109;-65
2022/06/13 12:14:51;;;;;;;3.00;2.55;;;;;;;;;;1734372;82;20965;-66
2022/06/13 12:17:18;;;;;;;3.25;2.90;;;;;;;;;;1733623;82;21000;-65
2022/06/13 12:19:52;;;;;;;4.28;2.83;;;;;;;;;;1732717;82;20975;-64
2022/06/13 12:22:35;;;;;;;3.85;3.00;;;;;;;;;;1710184;82;21486;-67
2022/06/13 12:25:03;;;;;;;13.95;3.92;;;;;;;;;;1740278;82;21043;-66
2022/06/13 12:27:47;;;;;;;6.60;3.40;;;;;;;;;;1731958;82;21037;-65
2022/06/13 12:30:15;;;;;;;4.05;3.10;;;;;;;;;;1730647;82;21536;-67
2022/06/13 12:32:43;;;;;;;4.70;3.58;;;;;;;;;;1747379;82;21558;-65
2022/06/13 12:35:11;;;;;;;3.27;2.95;;;;;;;;;;1729149;82;21537;-67
2022/06/13 12:37:43;;;;;;;4.00;3.30;;;;;;;;;;1748826;82;21024;-66
2022/06/13 12:40:18;;;;;;;5.65;3.45;;;;;;;;;;1736934;81;21035;-67
2022/06/13 12:42:49;;;;;;;6.12;3.98;;;;;;;;;;1743788;82;21061;-67
2022/06/13 12:45:20;;;;;;;6.50;4.00;;;;;;;;;;1725872;82;21061;-67
2022/06/13 12:48:07;;;;;;;6.83;3.12;;;;;;;;;;1734375;82;21037;-68
2022/06/13 12:50:50;;;;;;;3.83;2.90;;;;;;;;;;1744860;82;21096;-67
2022/06/13 12:53:16;;;;;;;;;;;;;;;;;;1731472;82;21052;-67
2022/06/13 12:55:44;;;;;;;4.37;3.30;;;;;;;;;;1730418;82;20447;-64
2022/06/13 12:58:18;;;;;;;7.55;3.50;;;;;;;;;;1745625;82;21532;-67
2022/06/13 13:00:56;;;;;;;4.70;3.17;;;;;;;;;;1734765;82;21671;-66
2022/06/13 13:03:28;;;;;;;3.87;3.10;;;;;;;;;;1729903;82;21044;-65
2022/06/13 13:05:59;;;;;;;4.37;3.35;;;;;;;;;;1721591;82;21080;-66
2022/06/13 13:08:27;;;;;;;3.60;3.12;;;;;;;;;;1736320;81;21516;-66
2022/06/13 13:10:55;;;;;;;10.18;3.20;;;;;;;;;;1732146;82;21008;-66
2022/06/13 13:13:24;;;;;;;4.70;3.42;;;;;;;;;;1734030;82;21068;-66
2022/06/13 13:15:55;;;;;;;4.22;3.20;;;;;;;;;;1743644;82;21016;-67
2022/06/13 13:18:26;;;;;;;5.28;3.70;;;;;;;;;;1732049;82;21498;-66
2022/06/13 13:20:55;;;;;;;7.65;3.90;;;;;;;;;;1746453;82;21053;-67
2022/06/13 13:23:29;;;;;;;4.60;3.55;;;;;;;;;;1733072;82;20973;-67
2022/06/13 13:25:58;;;;;;;4.05;3.20;;;;;;;;;;1734497;82;21075;-66
2022/06/13 13:28:26;;;;;;;3.75;3.00;;;;;;;;;;1733723;82;21520;-66
2022/06/13 13:31:11;;;;;;;7.80;4.62;;;;;;;;;;1733118;82;21056;-67
2022/06/13 13:33:52;;;;;;;4.50;3.30;;;;;;;;;;1731171;82;21064;-66
2022/06/13 13:36:20;;;;;;;4.78;2.83;;;;;;;;;;1702982;81;21526;-65
2022/06/13 13:38:53;;;;;;;3.52;2.83;;;;;;;;;;1673562;84;21539;-65
2022/06/13 13:41:21;;;;;;;3.70;2.70;;;;;;;;;;1729911;82;21018;-66
2022/06/13 13:43:52;;;;;;;3.52;2.85;;;;;;;;;;1736088;82;20998;-65
2022/06/13 13:46:26;;;;;;;4.25;3.42;;;;;;;;;;1738796;82;21057;-65
2022/06/13 13:48:53;;;;;;;3.40;2.90;;;;;;;;;;1722379;82;21013;-67
2022/06/13 13:51:24;;;;;;;3.27;2.90;;;;;;;;;;1746941;82;21065;-66
2022/06/13 13:54:07;;;;;;;3.67;2.80;;;;;;;;;;1726604;82;21559;-66
2022/06/13 13:56:35;;;;;;;3.50;2.90;;;;;;;;;;1705915;84;21079;-66
2022/06/13 13:59:01;;;;;;;4.60;3.00;;;;;;;;;;1737797;82;20957;-67
2022/06/13 14:01:32;;;;;;;3.70;2.90;;;;;;;;;;1736999;82;21133;-67
2022/06/13 14:04:00;;;;;;;3.85;2.80;;;;;;;;;;1725075;82;21549;-68
2022/06/13 14:06:29;;;;;;;4.50;2.70;;;;;;;;;;1747387;82;21037;-68
2022/06/13 14:08:54;;;;;;;4.22;2.90;;;;;;;;;;1735686;82;21012;-68
2022/06/13 14:11:22;;;;;;;4.90;2.75;;;;;;;;;;1743792;82;21060;-68
2022/06/13 14:13:50;;;;;;;3.77;2.67;;;;;;;;;;1730571;82;21033;-70
2022/06/13 14:16:24;;;;;;;4.25;2.85;;;;;;;;;;1696650;83;21028;-70
2022/06/13 14:18:57;;;;;;;3.55;2.92;;;;;;;;;;1733736;82;21642;-70
2022/06/13 14:21:33;;;;;;;3.33;3.02;;;;;;;;;;1725115;82;21895;-69
2022/06/13 14:24:10;;;;;;;4.05;2.80;;;;;;;;;;1720162;82;21060;-70
2022/06/13 14:26:42;;;;;;;3.20;2.90;;;;;;;;;;1729928;82;21041;-69
2022/06/13 14:29:10;;;;;;;5.72;3.10;;;;;;;;;;1734649;82;21588;-69
2022/06/13 14:31:53;;;;;;;3.52;2.80;;;;;;;;;;1729621;82;21072;-70
2022/06/13 14:37:23;;;;;;;3.37;2.83;;;;;;;;;;1681716;84;21511;-68
2022/06/13 14:39:52;;;;;;;6.70;3.10;;;;;;;;;;1740132;82;20989;-69
2022/06/13 14:42:22;;;;;;;6.87;2.80;;;;;;;;;;1733442;82;21468;-69
2022/06/13 14:44:59;;;;;;;9.98;5.87;;;;;;;;;;1739341;82;21029;-68
2022/06/13 14:47:44;;;;;;;3.90;2.62;;;;;;;;;;1718737;82;22135;-67
2022/06/13 14:50:10;;;;;;;4.08;3.37;;;;;;;;;;1712823;82;21054;-67
2022/06/13 14:52:36;;;;;;;3.27;2.98;;;;;;;;;;1725727;82;21084;-67
2022/06/13 14:55:04;;;;;;;3.37;2.72;;;;;;;;;;1734800;82;21049;-67
2022/06/13 14:57:32;;;;;;;3.83;2.83;;;;;;;;;;1739109;82;21022;-66
2022/06/13 15:00:03;;;;;;;3.08;2.72;;;;;;;;;;1722339;82;21084;-67
2022/06/13 15:02:30;;;;;;;3.17;2.80;;;;;;;;;;1728412;82;21041;-67
2022/06/13 15:05:04;;;;;;;4.37;2.60;;;;;;;;;;1726250;82;20990;-69
2022/06/13 15:07:32;;;;;;;3.62;3.12;;;;;;;;;;1722363;82;21069;-68
2022/06/13 15:10:01;;;;;;;4.30;3.30;;;;;;;;;;1721810;82;21090;-68
2022/06/13 15:12:29;;;;;;;3.00;2.70;;;;;;;;;;1732443;82;21037;-68
2022/06/13 15:15:01;;;;;;;4.15;2.87;;;;;;;;;;1721187;82;21025;-68
2022/06/13 15:17:27;;;;;;;4.55;2.90;;;;;;;;;;1714156;82;21006;-68
2022/06/13 15:19:56;;;;;;;6.08;2.70;;;;;;;;;;1730015;81;21584;-68
2022/06/13 15:22:23;;;;;;;5.05;2.80;;;;;;;;;;1736734;81;21005;-68
2022/06/13 15:24:51;;;;;;;5.58;2.60;;;;;;;;;;1731211;82;21024;-69
2022/06/13 15:27:17;;;;;;;3.25;2.60;;;;;;;;;;1727130;82;21013;-68
2022/06/13 15:29:45;;;;;;;2.92;2.65;;;;;;;;;;1732345;82;21036;-68